Metar-Reports

 

EDDS - Stuttgart/Echter, Germany
Distance from station: SW 11km
Updated: Mon, 09-Dec-2019 6:20pm CET
Light rain, Showers, Partly cloudy
Light rain, Showers, Partly cloudy
 Wind from W
Wind: W 20 km/h
Temperatur: 5°C
Wind Chill: 1°C
Taupunkt: 3°C
Luftfeuchte: 87%
Luftdruck: 1007 hPa
Wetter: Light rain, Showers
Wolken: Partly Cloudy
Sicht: 10 km
Wolken Details: Few Clouds 457 m
Partly Cloudy 610 m
2019/12/09 17:20 EDDS 091720Z 27011KT 9999 -SHRA FEW015 SCT020TCU 05/03 Q1007 NOSIG
EDTY - Schwaebisch Hall, Germany
Distance from station: NE 54km
Updated: Mon, 09-Dec-2019 6:20pm CET
Rain, Overcast
Rain, Overcast
 Wind from W
Wind: W 15 km/h
Temperatur: 5°C
Wind Chill: 2°C
Taupunkt: 4°C
Luftfeuchte: 93%
Luftdruck: 1006 hPa
Wetter: Rain
Wolken: Overcast
Sicht: 8 km
Wolken Details: Overcast 305 m
2019/12/09 17:20 EDTY 091720Z 26008KT 230V290 8000 RA OVC010 05/04 Q1006
 
ETHL - Laupheim (ger-Ar, Germany
Distance from station: SE 73km
Updated: Mon, 09-Dec-2019 6:20pm CET
Light rain, Mostly cloudy
Light rain, Mostly cloudy
 Wind from SW
Wind: SW 19 km/h
Temperatur: 4°C
Wind Chill: 0°C
Taupunkt: 3°C
Luftfeuchte: 93%
Luftdruck: 1006 hPa
Wetter: Light Rain
Wolken: Mostly Cloudy
Sicht: 10 km
Wolken Details: Partly Cloudy 305 m
Mostly Cloudy 488 m
2019/12/09 17:20 ETHL 091720Z 23010KT 9999 -RA SCT010 BKN016 04/03 Q1006 WHT BLU TEMPO GRN
ETHN - Niederstetten (g, Germany
Distance from station: NNE 85km
Updated: Mon, 09-Dec-2019 6:20pm CET
Mostly Cloudy
Mostly Cloudy
 Wind from W
Wind: W 22 km/h
Temperatur: 5°C
Wind Chill: 1°C
Taupunkt: 4°C
Luftfeuchte: 93%
Luftdruck: 1005 hPa
Wolken: Mostly Cloudy
Sicht: 10 km
Wolken Details: Mostly Cloudy 183 m
Mostly Cloudy 914 m
2019/12/09 17:20 ETHN 091720Z 28012KT 9999 BKN006 BKN030 05/04 Q1005 YLO
 
EDSB - Karlsruhe/Baden, Germany
Distance from station: W 91km
Updated: Mon, 09-Dec-2019 6:20pm CET
Mostly Cloudy
Mostly Cloudy
 Wind from SSW
Wind: SSW 15 km/h
Temperatur: 6°C
Wind Chill: 3°C
Taupunkt: 5°C
Luftfeuchte: 93%
Luftdruck: 1009 hPa
Wolken: Mostly Cloudy
Sicht: 10 km
Wolken Details: Few Clouds 732 m
Mostly Cloudy 1280 m
2019/12/09 17:20 EDSB 091720Z 20008KT 9999 FEW024 BKN042 06/05 Q1009
EDFM - Mannheim, Germany
Distance from station: NNW 103km
Updated: Mon, 09-Dec-2019 6:20pm CET
Mostly Cloudy
Mostly Cloudy
 Wind from WSW
Wind: WSW 7 km/h
Temperatur: 7°C
Wind Chill: 6°C
Taupunkt: 4°C
Luftfeuchte: 81%
Luftdruck: 1007 hPa
Wolken: Mostly Cloudy
Sicht: 10 km
Wolken Details: Mostly Cloudy 945 m
2019/12/09 17:20 EDFM 091720Z 24004KT 9999 BKN031 07/04 Q1007
 
EDJA - Memmingen Allgau, Germany
Distance from station: SE 108km
Updated: Mon, 09-Dec-2019 5:50pm CET
Light rain, Overcast
Light rain, Overcast
 Wind from SW
Wind: SW 20 km/h
Temperatur: 4°C
Wind Chill: -1°C
Taupunkt: 2°C
Luftfeuchte: 87%
Luftdruck: 1006 hPa
Wetter: Light Rain
Wolken: Overcast
Sicht: 10 km
Wolken Details: Mostly Cloudy 488 m
Mostly Cloudy 762 m
Overcast 945 m
2019/12/09 16:50 EDJA 091650Z 22011KT 9999 -RA BKN016 BKN025 OVC031 04/02 Q1006
ETIK - Illesheim (usa-A, Germany
Distance from station: NE 111km
Updated: Mon, 09-Dec-2019 5:56pm CET
Light rain, Mostly cloudy
Light rain, Mostly cloudy
 Wind from WSW
Wind: WSW 19 km/h
Temperatur: 5°C
Wind Chill: 1°C
Taupunkt: 5°C
Luftfeuchte: 100%
Luftdruck: 1005.8 hPa
Wetter: Light Rain
Wolken: Mostly Cloudy
Sicht: 10 km
Wolken Details: Partly Cloudy 549 m
Mostly Cloudy 701 m
2019/12/09 16:56 ETIK 091656Z AUTO 25010KT 9999 -RA SCT018 BKN023 05/05 A2970 RMK AO2 CIG 018V023 BKN V OVC SLP069 P0001 T00510051
 
ETEB - Katterbach (usa-, Germany
Distance from station: NE 114km
Updated: Mon, 09-Dec-2019 3:56pm CET
NOT Current
Light rain, Mostly cloudy
Light rain, Mostly cloudy
 Wind from WSW
Wind: WSW 20 km/h
Temperatur: 6°C
Wind Chill: 2°C
Taupunkt: 5°C
Luftfeuchte: 93%
Luftdruck: 1003.4 hPa
Wetter: Light Rain
Wolken: Mostly Cloudy
Sicht: 10 km
Wolken Details: Mostly Cloudy 640 m
2019/12/09 14:56 ETEB 091456Z AUTO 25011KT 9999 -RA BKN021 06/05 A2963 RMK AO2 RAE1358DZB25E26RAB26E36RAB39 SLP058 P0000 60000 T00620052 53009 FZRANO $
EDTL - Lahr (can-Afb), Germany
Distance from station: WSW 117km
Updated: Mon, 09-Dec-2019 6:20pm CET
Mostly Cloudy
Mostly Cloudy
 Wind from SW
Wind: SW 11 km/h
Temperatur: 7°C
Wind Chill: 5°C
Taupunkt: 4°C
Luftfeuchte: 81%
Luftdruck: 1010 hPa
Wolken: Mostly Cloudy
Sicht: 10 km
Wolken Details: Mostly Cloudy 1036 m
2019/12/09 17:20 EDTL 091720Z 22006KT 9999 BKN034 07/04 Q1010
 
EDNY - Friedrichshafen, Germany
Distance from station: S 121km
Updated: Mon, 09-Dec-2019 6:20pm CET
Light rain, Overcast
Light rain, Overcast
 Wind from WSW
Wind: WSW 24 km/h
Temperatur: 5°C
Wind Chill: 1°C
Taupunkt: 3°C
Luftfeuchte: 87%
Luftdruck: 1008 hPa
Wetter: Light Rain
Wolken: Overcast
Sicht: 10 km
Wolken Details: Overcast 488 m
2019/12/09 17:20 EDNY 091720Z 24013KT 9999 -RA OVC016 05/03 Q1008
EDMA - Augsburg/Mulhaus, Germany
Distance from station: ESE 123km
Updated: Mon, 09-Dec-2019 6:20pm CET
Clear
Clear
 Wind from SW
Wind: SW 19 km/h
Temperatur: 5°C
Wind Chill: 1°C
Taupunkt: 2°C
Luftfeuchte: 81%
Luftdruck: 1006 hPa
Wetter: Clear
Sicht: greater than 10 km
2019/12/09 17:20 EDMA 091720Z 23010KT CAVOK 05/02 Q1006
 
LFST - Strasbourg/Entzh, France
Distance from station: W 127km
Updated: Mon, 09-Dec-2019 6:30pm CET
Mostly Cloudy
Mostly Cloudy
 Wind from W
Wind: W 22 km/h
Temperatur: 7°C
Wind Chill: 4°C
Taupunkt: 4°C
Luftfeuchte: 81%
Luftdruck: 1010 hPa
Wolken: Mostly Cloudy
Sicht: 10 km
Wolken Details: Few Clouds 853 m
Mostly Cloudy 1311 m
Mostly Cloudy 3048 m
2019/12/09 17:30 LFST 091730Z AUTO 28012KT 9999 FEW028 BKN043 BKN100 07/04 Q1010 TEMPO BKN025TCU
ETSL - Lechfeld (ger-Af, Germany
Distance from station: ESE 131km
Updated: Mon, 09-Dec-2019 6:20pm CET
Mostly Cloudy
Mostly Cloudy
 Wind from SW
Wind: SW 20 km/h
Temperatur: 5°C
Wind Chill: 1°C
Taupunkt: 1°C
Luftfeuchte: 76%
Luftdruck: 1006 hPa
Wolken: Mostly Cloudy
Sicht: 10 km
Wolken Details: Mostly Cloudy 610 m
Mostly Cloudy 3048 m
2019/12/09 17:20 ETSL 091720Z 23011KT 9999 BKN020 BKN100 05/01 Q1006 WHT
 
ETSN - Neuburg/Donau, Germany
Distance from station: E 139km
Updated: Mon, 09-Dec-2019 6:20pm CET
Mostly Cloudy
Mostly Cloudy
 Wind from WSW
Wind: WSW 11 km/h
Temperatur: 6°C
Wind Chill: 4°C
Taupunkt: 3°C
Luftfeuchte: 81%
Luftdruck: 1006 hPa
Wolken: Mostly Cloudy
Sicht: 10 km
Wolken Details: Partly Cloudy 762 m
Mostly Cloudy 6096 m
2019/12/09 17:20 ETSN 091720Z 24006KT 9999 SCT025 BKN200 06/03 Q1006 BLU+BLU TEMPO WHT
LSZR - Rheineck/Altenrh, Switzerland
Distance from station: S 141km
Updated: Mon, 09-Dec-2019 6:20pm CET
Light rain, Mostly cloudy
Light rain, Mostly cloudy
 Wind from W
Wind: W 13 km/h
Temperatur: 7°C
Wind Chill: 5°C
Taupunkt: 3°C
Luftfeuchte: 76%
Luftdruck: 1008 hPa
Wetter: Light Rain
Wolken: Mostly Cloudy
Sicht: 10 km
Wolken Details: Mostly Cloudy 1372 m
2019/12/09 17:20 LSZR 091720Z 26007KT 200V010 9999 -RA BKN045 07/03 Q1008 NOSIG RMK M
 
ETAR - Ramstein (usafb), Germany
Distance from station: WNW 147km
Updated: Mon, 09-Dec-2019 5:56pm CET
Light rain, Mostly cloudy
Light rain, Mostly cloudy
 Wind from WSW
Wind: WSW 15 km/h
Temperatur: 6°C
Wind Chill: 3°C
Taupunkt: 6°C
Luftfeuchte: 100%
Luftdruck: 1006.8 hPa
Wetter: Light Rain
Wolken: Mostly Cloudy
Sicht: 10 km
Wolken Details: Partly Cloudy 914 m
Mostly Cloudy 1128 m
2019/12/09 16:56 ETAR 091656Z 24008KT 9999 -RA SCT030 BKN037 06/06 A2973 RMK AO2A RAB44 SLP077 P0000 T00600060
LSZH - Zurich-Kloten (a, Switzerland
Distance from station: SSW 152km
Updated: Mon, 09-Dec-2019 6:20pm CET
Light rain, Showers, Mostly cloudy
Light rain, Showers, Mostly cloudy
 Wind from W
Wind: W 20 km/h
Temperatur: 5°C
Wind Chill: 1°C
Taupunkt: 3°C
Luftfeuchte: 87%
Luftdruck: 1010 hPa
Wetter: Light rain, Showers
Wolken: Mostly Cloudy
Sicht: 8 km
Wolken Details: Few Clouds 305 m
Partly Cloudy 457 m
Mostly Cloudy 610 m
2019/12/09 17:20 LSZH 091720Z 26011KT 8000 -SHRA FEW010 SCT015 BKN020 05/03 Q1010 RESHRA TEMPO SHRA
 
EDDN - Nuernberg, Germany
Distance from station: NE 153km
Updated: Mon, 09-Dec-2019 6:20pm CET
Light rain, Showers, Mostly cloudy
Light rain, Showers, Mostly cloudy
 Wind from WSW
Wind: WSW 13 km/h
Temperatur: 6°C
Wind Chill: 3°C
Taupunkt: 3°C
Luftfeuchte: 81%
Luftdruck: 1005 hPa
Wetter: Light rain, Showers
Wolken: Mostly Cloudy
Sicht: 10 km
Wolken Details: Few Clouds 457 m
Mostly Cloudy 1006 m
2019/12/09 17:20 EDDN 091720Z 24007KT 9999 -SHRA FEW015 BKN033 06/03 Q1005 NOSIG
EDDF - Frankfurt Main A, Germany
Distance from station: NNW 154km
Updated: Mon, 09-Dec-2019 6:20pm CET
Light rain, Showers, Mostly cloudy
Light rain, Showers, Mostly cloudy
 Wind from W
Wind: W 13 km/h
Temperatur: 7°C
Wind Chill: 5°C
Taupunkt: 4°C
Luftfeuchte: 81%
Luftdruck: 1007 hPa
Wetter: Light rain, Showers
Wolken: Mostly Cloudy
Sicht: 10 km
Wolken Details: Few Clouds 732 m
Partly Cloudy 975 m
Mostly Cloudy 1341 m
2019/12/09 17:20 EDDF 091720Z 27007KT 240V300 9999 -SHRA FEW024TCU SCT032 BKN044 07/04 Q1007 NOSIG

Metar display script from Saratoga-Weather.org